Time;durP1;ratioP1;P1;durP2;ratioP2;P2;SDS_P1;SDS_P2;PMS_P1;PMS_P2;Temp;Humidity;BMP_temperature;BMP_pressure;BME280_temperature;BME280_humidity;BME280_pressure;Samples;Min_cycle;Max_cycle;Signal;HPM_P1;HPM_P2
2022/06/17 00:01:05;;;;;;;;;3.00;2.00;;;;;21.12;49.22;98617.94;4966222;28;104072;-59
2022/06/17 00:03:32;;;;;;;;;2.00;2.00;;;;;21.13;49.04;98607.81;4946101;28;102416;-59
2022/06/17 00:06:01;;;;;;;;;2.00;2.00;;;;;21.12;49.37;98606.94;4936970;28;102038;-59
2022/06/17 00:08:40;;;;;;;;;2.00;2.00;;;;;21.15;48.96;98611.13;4903074;28;102961;-59
2022/06/17 00:11:32;;;;;;;;;3.00;3.00;;;;;21.15;48.64;98616.63;4878803;28;108886;-59
2022/06/17 00:13:59;;;;;;;;;3.00;3.00;;;;;21.15;49.04;98628.47;4956881;28;102319;-59
2022/06/17 00:16:32;;;;;;;;;0.00;0.00;;;;;21.15;48.57;98625.72;4956488;28;102977;-59
2022/06/17 00:18:59;;;;;;;;;3.00;2.00;;;;;21.15;48.73;98622.97;4966678;28;102282;-59
2022/06/17 00:21:29;;;;;;;;;3.00;2.00;;;;;21.14;48.76;98624.06;4968523;28;104129;-59
2022/06/17 00:23:56;;;;;;;;;2.33;2.33;;;;;21.14;49.10;98629.56;4957419;28;102407;-59
2022/06/17 00:26:23;;;;;;;;;2.00;2.00;;;;;21.14;48.67;98625.97;4961292;28;102296;-59
2022/06/17 00:28:50;;;;;;;;;2.00;2.00;;;;;21.13;48.92;98625.16;4969791;28;102194;-58
2022/06/17 00:31:18;;;;;;;;;2.67;2.67;;;;;21.12;49.03;98623.44;4961396;28;104316;-58
2022/06/17 00:33:45;;;;;;;;;3.00;3.00;;;;;21.10;48.63;98620.16;4949719;28;102116;-59
2022/06/17 00:36:15;;;;;;;;;2.00;2.00;;;;;21.11;49.15;98629.25;4928829;28;102157;-59
2022/06/17 00:38:42;;;;;;;;;3.00;3.00;;;;;21.12;48.75;98622.66;4976040;28;102774;-59
2022/06/17 00:41:36;;;;;;;;;2.00;2.00;;;;;21.12;49.10;98628.16;4962456;28;104238;-59
2022/06/17 00:44:30;;;;;;;;;1.67;1.67;;;;;21.12;49.16;98633.66;4949061;28;102359;-59
2022/06/17 00:47:02;;;;;;;;;2.67;1.67;;;;;21.13;49.12;98640.81;4942276;28;102618;-59
2022/06/17 00:49:56;;;;;;;;;1.33;1.33;;;;;21.12;49.11;98639.16;4954015;28;112279;-59
2022/06/17 00:52:41;;;;;;;;;1.67;1.67;;;;;21.12;48.76;98656.44;4976456;28;108803;-59
2022/06/17 00:55:25;;;;;;;;;2.67;1.67;;;;;21.12;49.31;98656.44;4964612;28;103503;-59
2022/06/17 00:57:53;;;;;;;;;1.67;1.67;;;;;21.10;48.60;98647.66;4950743;28;102433;-59
2022/06/17 01:00:22;;;;;;;;;2.00;1.67;;;;;21.10;48.87;98653.16;4954827;28;102879;-59
2022/06/17 01:02:56;;;;;;;;;2.33;2.33;;;;;21.10;49.09;98653.16;4905075;28;104190;-59
2022/06/17 01:05:26;;;;;;;;;2.67;2.67;;;;;21.10;49.07;98653.16;4937218;28;102436;-58
2022/06/17 01:07:56;;;;;;;;;1.67;1.67;;;;;21.10;48.96;98652.31;4941902;28;102951;-58
2022/06/17 01:10:23;;;;;;;;;3.00;3.00;;;;;21.09;49.05;98654.25;4942776;28;102535;-58
2022/06/17 01:13:04;;;;;;;;;4.33;3.00;;;;;21.10;48.78;98664.16;4928684;28;104081;-58
2022/06/17 01:15:32;;;;;;;;;3.33;3.00;;;;;21.09;48.87;98657.00;4952177;28;104892;-58
2022/06/17 01:18:00;;;;;;;;;3.00;2.33;;;;;21.09;49.25;98659.75;4950168;28;102295;-58
2022/06/17 01:20:28;;;;;;;;;3.00;2.33;;;;;21.10;49.06;98653.16;4960571;28;102343;-59
2022/06/17 01:22:57;;;;;;;;;3.00;2.00;;;;;21.10;49.28;98658.66;4964656;28;104259;-59
2022/06/17 01:25:27;;;;;;;;;1.33;1.33;;;;;21.10;49.05;98669.66;4948896;28;102253;-59
2022/06/17 01:27:56;;;;;;;;;2.00;2.00;;;;;21.11;49.32;98668.56;4960658;28;102418;-59
2022/06/17 01:30:47;;;;;;;;;2.00;2.00;;;;;21.10;48.90;98668.81;4956997;28;103061;-59
2022/06/17 01:33:18;;;;;;;;;3.00;3.00;;;;;21.09;49.30;98672.66;4949625;28;108932;-59
2022/06/17 01:35:53;;;;;;;;;2.67;2.67;;;;;21.08;49.31;98671.84;4953553;28;102734;-60
2022/06/17 01:38:21;;;;;;;;;3.00;2.67;;;;;21.08;49.06;98671.84;4942271;28;102116;-59
2022/06/17 01:40:48;;;;;;;;;3.00;3.00;;;;;21.10;49.30;98682.56;4955567;28;102184;-59
2022/06/17 01:43:17;;;;;;;;;2.67;2.67;;;;;21.07;48.94;98670.19;4950319;28;104171;-59
2022/06/17 01:45:50;;;;;;;;;2.00;2.00;;;;;21.08;48.92;98680.09;4944890;28;102120;-59
2022/06/17 01:48:17;;;;;;;;;3.00;2.67;;;;;21.08;49.21;98674.59;4953128;28;102218;-59
2022/06/17 01:50:44;;;;;;;;;1.67;1.67;;;;;21.07;48.91;98681.19;4959571;28;102286;-60
2022/06/17 01:53:17;;;;;;;;;3.00;3.00;;;;;21.08;49.17;98677.34;4932149;28;104193;-59
2022/06/17 01:55:49;;;;;;;;;3.00;3.00;;;;;21.08;49.00;98679.25;4957501;28;102253;-59
2022/06/17 01:58:28;;;;;;;;;4.00;3.00;;;;;21.09;48.98;98686.41;4941516;28;102118;-59
2022/06/17 02:00:55;;;;;;;;;3.67;3.67;;;;;21.08;49.38;98688.34;4958031;28;102626;-59
2022/06/17 02:03:25;;;;;;;;;2.33;2.00;;;;;21.08;49.42;98687.50;4957763;28;104052;-59
2022/06/17 02:06:14;;;;;;;;;3.00;3.00;;;;;21.08;49.13;98693.00;4955534;28;102329;-59
2022/06/17 02:08:41;;;;;;;;;3.67;3.00;;;;;21.07;48.98;98691.38;4946373;28;102356;-59
2022/06/17 02:11:08;;;;;;;;;4.00;4.00;;;;;21.08;48.94;98698.50;4988750;28;102474;-59
2022/06/17 02:13:39;;;;;;;;;2.67;2.33;;;;;21.07;49.23;98692.19;4958320;28;104279;-59
2022/06/17 02:16:06;;;;;;;;;4.00;4.00;;;;;21.04;48.84;98698.22;4953193;28;102828;-59
2022/06/17 02:18:33;;;;;;;;;3.33;3.33;;;;;21.07;48.98;98703.19;4982293;28;102171;-59
2022/06/17 02:21:03;;;;;;;;;3.00;3.00;;;;;21.06;49.48;98707.03;4963775;28;102112;-59
2022/06/17 02:23:30;;;;;;;;;1.67;1.67;;;;;21.05;49.08;98705.38;4952082;28;104090;-59
2022/06/17 02:25:57;;;;;;;;;2.00;2.00;;;;;21.05;49.18;98704.53;4943462;28;102609;-59
2022/06/17 02:28:24;;;;;;;;;3.00;2.00;;;;;21.07;49.44;98703.19;4956829;28;102325;-59
2022/06/17 02:30:51;;;;;;;;;1.67;1.67;;;;;21.07;49.27;98714.19;4958379;28;102249;-58
2022/06/17 02:33:18;;;;;;;;;4.00;4.00;;;;;21.06;49.46;98711.69;4957896;28;111293;-60
2022/06/17 02:35:56;;;;;;;;;3.00;3.00;;;;;21.05;49.46;98705.38;4948747;28;102649;-59
2022/06/17 02:38:25;;;;;;;;;4.33;3.33;;;;;21.05;49.06;98710.03;4986891;28;102504;-59
2022/06/17 02:40:54;;;;;;;;;2.67;2.33;;;;;21.06;49.35;98707.03;4957044;28;102153;-59
2022/06/17 02:43:26;;;;;;;;;4.00;2.33;;;;;21.06;48.85;98708.94;4959295;28;104090;-59
2022/06/17 02:45:55;;;;;;;;;3.00;3.00;;;;;21.06;49.51;98717.19;4975564;28;102458;-59
2022/06/17 02:48:25;;;;;;;;;3.00;2.33;;;;;21.04;49.42;98725.69;4988011;28;102199;-59
2022/06/17 02:50:54;;;;;;;;;3.00;3.00;;;;;21.03;49.31;98726.78;4957847;28;102411;-59
2022/06/17 02:53:45;;;;;;;;;3.00;3.00;;;;;21.04;49.02;98724.88;4962943;28;104169;-59
2022/06/17 02:56:18;;;;;;;;;1.00;1.00;;;;;21.04;49.03;98735.88;4948809;28;102443;-57
2022/06/17 02:58:45;;;;;;;;;2.67;2.67;;;;;21.04;49.64;98733.94;4950618;28;102162;-57
2022/06/17 03:01:16;;;;;;;;;2.00;1.67;;;;;21.03;49.14;98740.53;4963263;28;102213;-58
2022/06/17 03:03:44;;;;;;;;;4.00;3.00;;;;;21.04;49.54;98738.63;4961287;28;109290;-57
2022/06/17 03:06:30;;;;;;;;;3.67;3.67;;;;;21.03;49.48;98735.03;4973184;28;102605;-59
2022/06/17 03:08:57;;;;;;;;;3.00;3.00;;;;;21.02;49.28;98741.66;4979272;28;102350;-59
2022/06/17 03:11:24;;;;;;;;;2.00;1.67;;;;;21.03;48.95;98745.25;4956522;28;104482;-58
2022/06/17 03:13:53;;;;;;;;;2.00;2.00;;;;;21.02;49.04;98743.56;4952450;28;104053;-59
2022/06/17 03:16:20;;;;;;;;;2.00;2.00;;;;;21.03;49.01;98739.75;4956304;28;102121;-58
2022/06/17 03:18:47;;;;;;;;;3.33;3.00;;;;;21.04;49.23;98758.69;4952977;28;102414;-58
2022/06/17 03:21:16;;;;;;;;;3.00;3.00;;;;;21.03;49.04;98748.78;4962482;28;111193;-58
2022/06/17 03:24:11;;;;;;;;;3.00;3.00;;;;;21.02;49.03;98755.41;4956316;28;108824;-58
2022/06/17 03:26:56;;;;;;;;;3.00;3.00;;;;;21.01;49.50;98764.72;4945924;28;102585;-58
2022/06/17 03:29:24;;;;;;;;;3.00;3.00;;;;;21.02;48.97;98760.91;4978961;28;102575;-58
2022/06/17 03:32:04;;;;;;;;;4.33;3.00;;;;;21.03;48.90;98758.97;4939149;28;103523;-58
2022/06/17 03:34:36;;;;;;;;;2.00;2.00;;;;;21.03;49.32;98767.22;4954651;28;104190;-58
2022/06/17 03:37:15;;;;;;;;;3.33;3.33;;;;;21.03;49.25;98770.78;4965939;28;102169;-58
2022/06/17 03:39:46;;;;;;;;;3.00;2.33;;;;;21.03;49.40;98768.03;4965805;28;102183;-58
2022/06/17 03:42:19;;;;;;;;;3.67;3.67;;;;;21.03;49.23;98779.03;4969633;28;103156;-58
2022/06/17 03:44:53;;;;;;;;;4.00;3.00;;;;;21.04;49.42;98775.19;4990225;28;109140;-58
2022/06/17 03:47:42;;;;;;;;;4.00;3.00;;;;;21.05;48.92;98776.03;4961776;28;102941;-58
2022/06/17 03:50:30;;;;;;;;;4.00;4.00;;;;;21.04;48.91;98780.69;4956600;28;102423;-58
2022/06/17 03:53:01;;;;;;;;;2.67;2.67;;;;;21.05;48.90;98793.34;4961541;28;102183;-58
2022/06/17 03:55:28;;;;;;;;;3.33;3.00;;;;;21.04;49.68;98791.69;4963257;28;104085;-58
2022/06/17 03:57:57;;;;;;;;;3.00;3.00;;;;;21.04;49.33;98801.84;4999978;28;104105;-58
2022/06/17 04:00:38;;;;;;;;;3.00;3.00;;;;;21.04;49.38;98801.84;4939453;28;102219;-58
2022/06/17 04:03:08;;;;;;;;;3.33;3.00;;;;;21.04;49.04;98804.59;4963329;28;104693;-58
2022/06/17 04:05:36;;;;;;;;;3.00;3.00;;;;;21.03;49.30;98808.47;4961617;28;104152;-58
2022/06/17 04:08:03;;;;;;;;;3.00;3.00;;;;;21.02;49.07;98813.13;4958484;28;102611;-58
2022/06/17 04:10:30;;;;;;;;;2.67;1.67;;;;;21.03;49.38;98806.53;4958300;28;104794;-58
2022/06/17 04:12:57;;;;;;;;;1.67;1.67;;;;;21.04;49.01;98813.69;4948570;28;102072;-58
2022/06/17 04:15:39;;;;;;;;;3.33;2.33;;;;;21.03;49.09;98814.78;4963751;28;104185;-58
2022/06/17 04:18:07;;;;;;;;;2.67;2.67;;;;;21.03;49.57;98824.97;4959501;28;102152;-58
2022/06/17 04:20:44;;;;;;;;;2.67;2.67;;;;;21.04;49.33;98826.59;4958673;28;102732;-59
2022/06/17 04:23:17;;;;;;;;;2.00;1.67;;;;;21.01;49.32;98827.97;4998179;28;102631;-59
2022/06/17 04:25:52;;;;;;;;;3.67;3.67;;;;;21.04;49.31;98824.69;4962810;28;108946;-59
2022/06/17 04:28:27;;;;;;;;;4.00;4.00;;;;;21.05;49.34;98822.78;4961535;28;102190;-60
2022/06/17 04:30:56;;;;;;;;;2.67;2.67;;;;;21.05;49.05;98831.00;4962746;28;102255;-57
2022/06/17 04:33:32;;;;;;;;;2.33;2.33;;;;;21.04;49.21;98829.34;4958862;28;102217;-57
2022/06/17 04:36:07;;;;;;;;;1.67;1.67;;;;;21.04;49.28;98830.19;4969557;28;104028;-57
2022/06/17 04:38:35;;;;;;;;;2.67;2.67;;;;;21.04;49.29;98834.84;4953731;28;102400;-58
2022/06/17 04:41:02;;;;;;;;;3.00;3.00;;;;;21.04;48.95;98829.34;4959406;28;102236;-58
2022/06/17 04:43:30;;;;;;;;;3.00;2.00;;;;;21.04;49.14;98830.19;4967954;28;102643;-58
2022/06/17 04:46:11;;;;;;;;;2.67;2.67;;;;;21.03;49.32;98838.72;4948260;28;104152;-59
2022/06/17 04:48:38;;;;;;;;;2.33;2.33;;;;;21.05;48.83;98842.84;4974052;28;102272;-60
2022/06/17 04:51:05;;;;;;;;;3.00;3.00;;;;;21.03;49.08;98834.03;4992091;28;102401;-59
2022/06/17 04:53:32;;;;;;;;;4.00;3.00;;;;;21.04;49.13;98838.44;4964559;28;102464;-60
2022/06/17 04:56:00;;;;;;;;;2.33;2.33;;;;;21.05;49.48;98839.25;4957229;28;104319;-60
2022/06/17 04:58:27;;;;;;;;;3.33;3.00;;;;;21.06;49.32;98846.44;4965816;28;103984;-58
2022/06/17 05:00:55;;;;;;;;;3.00;3.00;;;;;21.06;49.00;98852.75;4958778;28;102230;-59
2022/06/17 05:03:26;;;;;;;;;2.67;2.67;;;;;21.06;48.73;98860.19;4965606;28;103196;-59
2022/06/17 05:05:54;;;;;;;;;4.00;4.00;;;;;21.07;48.90;98865.44;4958079;28;104513;-60
2022/06/17 05:08:22;;;;;;;;;3.00;2.00;;;;;21.07;49.07;98861.84;4967183;28;102242;-60
2022/06/17 05:11:01;;;;;;;;;3.00;2.67;;;;;21.07;49.29;98857.19;4963708;28;102375;-60
2022/06/17 05:13:31;;;;;;;;;4.00;4.00;;;;;21.08;48.93;98855.22;4955037;28;102476;-59
2022/06/17 05:15:58;;;;;;;;;3.00;3.00;;;;;21.08;48.83;98868.97;4951501;28;104159;-60
2022/06/17 05:18:25;;;;;;;;;4.00;3.00;;;;;21.07;49.33;98868.19;4950897;28;103049;-59
2022/06/17 05:20:52;;;;;;;;;3.00;2.33;;;;;21.07;49.28;98870.94;4951321;28;102163;-60
2022/06/17 05:23:19;;;;;;;;;3.00;3.00;;;;;21.09;49.40;98870.66;4959226;28;102340;-60
2022/06/17 05:25:47;;;;;;;;;3.00;3.00;;;;;21.09;49.08;98876.97;4965903;28;104082;-59
2022/06/17 05:28:18;;;;;;;;;3.00;3.00;;;;;21.09;49.20;98879.72;4959755;28;102621;-59
2022/06/17 05:30:53;;;;;;;;;3.50;3.00;;;;;21.09;49.00;98882.47;4966003;28;102499;-59
2022/06/17 05:33:23;;;;;;;;;3.00;3.00;;;;;21.10;49.03;98883.31;4945557;28;102573;-59
2022/06/17 05:35:50;;;;;;;;;2.00;2.00;;;;;21.09;49.01;98887.97;4948522;28;104088;-59
2022/06/17 05:38:17;;;;;;;;;2.00;2.00;;;;;21.10;49.17;98889.63;4956899;28;102227;-59
2022/06/17 05:40:44;;;;;;;;;2.00;2.00;;;;;21.11;48.78;98890.47;4960381;28;104000;-59
2022/06/17 05:43:12;;;;;;;;;2.33;2.33;;;;;21.10;48.72;98892.38;4961978;28;102445;-58
2022/06/17 05:45:39;;;;;;;;;2.33;2.33;;;;;21.10;49.15;98892.38;4964015;28;104064;-59
2022/06/17 05:48:07;;;;;;;;;3.00;3.00;;;;;21.09;49.12;98901.72;4960939;28;102555;-60
2022/06/17 05:50:34;;;;;;;;;3.00;3.00;;;;;21.10;49.00;98900.63;4965625;28;102163;-58
2022/06/17 05:53:03;;;;;;;;;4.00;2.33;;;;;21.09;49.26;98909.97;4955773;28;103461;-59
2022/06/17 05:55:31;;;;;;;;;3.67;2.33;;;;;21.11;49.19;98913.31;4947955;28;103956;-59
2022/06/17 05:57:58;;;;;;;;;2.00;1.00;;;;;21.11;49.14;98916.06;4959725;28;101953;-59
2022/06/17 06:00:25;;;;;;;;;3.00;3.00;;;;;21.11;48.99;98918.81;4961099;28;102375;-59
2022/06/17 06:02:57;;;;;;;;;3.00;3.00;;;;;21.12;49.13;98922.38;4957160;28;102753;-59
2022/06/17 06:05:25;;;;;;;;;2.00;2.00;;;;;21.12;49.24;98920.44;4961371;28;104256;-59
2022/06/17 06:07:52;;;;;;;;;5.00;3.00;;;;;21.12;48.85;98917.69;4963771;28;102631;-59
2022/06/17 06:10:19;;;;;;;;;2.33;2.00;;;;;21.12;48.77;98920.44;4965122;28;102611;-59
2022/06/17 06:13:01;;;;;;;;;2.67;2.67;;;;;21.12;48.97;98931.44;4950375;28;102223;-59
2022/06/17 06:15:39;;;;;;;;;2.00;2.00;;;;;21.12;48.89;98925.13;4958890;28;109000;-58
2022/06/17 06:18:11;;;;;;;;;3.00;3.00;;;;;21.12;49.01;98942.44;4957715;28;102440;-59
2022/06/17 06:20:38;;;;;;;;;2.67;2.67;;;;;21.11;48.85;98932.56;4957820;28;102418;-58
2022/06/17 06:23:05;;;;;;;;;4.00;3.00;;;;;21.12;48.83;98930.63;4958395;28;102971;-59
2022/06/17 06:25:32;;;;;;;;;3.00;2.33;;;;;21.11;49.17;98938.06;4965470;28;104224;-59
2022/06/17 06:28:06;;;;;;;;;3.00;3.00;;;;;21.11;49.21;98938.06;4966070;28;102162;-59
2022/06/17 06:30:33;;;;;;;;;2.00;2.00;;;;;21.11;49.17;98940.81;4980788;28;102495;-59
2022/06/17 06:33:01;;;;;;;;;3.67;3.00;;;;;21.12;49.32;98941.63;4961642;28;103322;-59
2022/06/17 06:35:32;;;;;;;;;3.33;3.33;;;;;21.11;49.03;98946.31;4956204;28;104061;-59
2022/06/17 06:38:00;;;;;;;;;5.00;3.00;;;;;21.11;48.56;98943.56;4961606;28;102176;-59
2022/06/17 06:40:27;;;;;;;;;3.00;2.00;;;;;21.12;49.36;98942.44;4956943;28;102276;-58
2022/06/17 06:42:55;;;;;;;;;3.00;3.00;;;;;21.12;48.69;98945.19;4952694;28;102450;-58
2022/06/17 06:45:28;;;;;;;;;4.00;3.00;;;;;21.12;48.95;98944.38;4956035;28;103968;-58
2022/06/17 06:47:57;;;;;;;;;2.67;2.67;;;;;21.11;48.83;98951.81;4959572;28;102542;-58
2022/06/17 06:50:26;;;;;;;;;3.00;3.00;;;;;21.10;49.14;98944.63;4964284;28;102227;-58
2022/06/17 06:52:54;;;;;;;;;3.00;3.00;;;;;21.11;49.22;98950.97;4951238;28;102722;-58
2022/06/17 06:55:21;;;;;;;;;2.67;2.67;;;;;21.10;49.22;98955.63;4958666;28;104092;-59
2022/06/17 06:57:53;;;;;;;;;4.00;3.00;;;;;21.10;48.62;98946.56;4954615;28;102032;-59
2022/06/17 07:00:23;;;;;;;;;4.00;4.00;;;;;21.10;49.14;98961.13;4959103;28;102149;-59
2022/06/17 07:02:50;;;;;;;;;4.00;3.67;;;;;21.12;48.61;98958.13;4962496;28;102408;-59
2022/06/17 07:05:17;;;;;;;;;3.00;3.00;;;;;21.11;48.89;98961.97;4963032;28;109793;-59
2022/06/17 07:07:46;;;;;;;;;3.00;3.00;;;;;21.10;48.96;98950.13;4944821;28;102744;-59
2022/06/17 07:10:15;;;;;;;;;3.33;3.00;;;;;21.12;49.12;98949.88;4955471;28;102349;-59
2022/06/17 07:12:43;;;;;;;;;3.00;3.00;;;;;21.11;48.65;98951.81;4964441;28;102474;-59
2022/06/17 07:15:10;;;;;;;;;2.67;2.33;;;;;21.11;48.83;98951.81;4954952;28;104067;-59
2022/06/17 07:17:37;;;;;;;;;3.00;3.00;;;;;21.11;49.24;98957.31;4950735;28;102480;-59
2022/06/17 07:20:05;;;;;;;;;2.67;2.00;;;;;21.11;48.73;98961.97;4969375;28;102007;-58
2022/06/17 07:22:35;;;;;;;;;3.00;2.67;;;;;21.11;48.79;98962.81;4960141;28;103326;-58
2022/06/17 07:25:07;;;;;;;;;3.67;3.67;;;;;21.11;48.93;98965.56;4951962;28;104208;-58
2022/06/17 07:27:34;;;;;;;;;4.00;4.00;;;;;21.10;49.23;98961.13;4963087;28;102211;-57
2022/06/17 07:30:01;;;;;;;;;2.33;2.33;;;;;21.11;49.14;98970.22;4958717;28;102204;-58
2022/06/17 07:32:28;;;;;;;;;3.33;3.33;;;;;21.11;49.22;98961.97;4958908;28;102606;-57
2022/06/17 07:34:55;;;;;;;;;3.33;3.33;;;;;21.10;48.91;98969.38;4964087;28;104206;-59
2022/06/17 07:40:08;;;;;;;;;2.00;2.00;;;;;21.10;49.24;98969.38;4967475;28;102845;-60
2022/06/17 07:42:38;;;;;;;;;2.00;2.00;;;;;21.11;49.07;98968.31;4966557;28;102236;-60
2022/06/17 07:45:10;;;;;;;;;4.00;4.00;;;;;21.11;48.98;98968.31;4963673;28;104254;-59
2022/06/17 07:47:39;;;;;;;;;4.00;4.00;;;;;21.10;48.92;98966.63;4963582;28;102120;-60
2022/06/17 07:50:07;;;;;;;;;2.67;2.67;;;;;21.11;49.14;98978.47;4968531;28;110103;-58
2022/06/17 07:52:35;;;;;;;;;4.67;4.00;;;;;21.11;48.72;98968.31;4961098;28;102343;-60
2022/06/17 07:55:02;;;;;;;;;2.67;2.67;;;;;21.11;48.65;98982.06;4971404;28;104233;-58
2022/06/17 07:57:29;;;;;;;;;3.67;3.67;;;;;21.10;49.23;98985.88;4957442;28;102368;-58
2022/06/17 07:59:56;;;;;;;;;3.33;3.00;;;;;21.10;48.57;98972.13;4955269;28;104667;-58
2022/06/17 08:02:23;;;;;;;;;4.00;4.00;;;;;21.11;48.78;98982.06;4954871;28;102227;-59
2022/06/17 08:04:51;;;;;;;;;2.67;2.67;;;;;21.11;48.50;98982.06;4967294;28;104064;-58
2022/06/17 08:07:18;;;;;;;;;3.00;2.67;;;;;21.11;48.64;98983.97;4963180;28;102292;-58
2022/06/17 08:09:45;;;;;;;;;2.00;2.00;;;;;21.11;48.88;98990.31;4960565;28;102478;-58
2022/06/17 08:12:13;;;;;;;;;3.67;3.00;;;;;21.09;48.92;98977.88;4975379;28;103127;-58
2022/06/17 08:14:46;;;;;;;;;4.67;4.00;;;;;21.11;48.64;98984.81;4968734;28;104251;-58
2022/06/17 08:17:14;;;;;;;;;3.67;3.67;;;;;21.12;48.95;98991.94;4949859;28;102477;-58
2022/06/17 08:19:41;;;;;;;;;3.00;2.00;;;;;21.11;48.87;98995.81;4953724;28;102682;-58
2022/06/17 08:22:08;;;;;;;;;2.67;2.67;;;;;21.12;48.79;98991.94;4967851;28;102077;-58
2022/06/17 08:24:35;;;;;;;;;4.00;3.00;;;;;21.12;48.83;98989.19;4962336;28;104083;-58
2022/06/17 08:27:03;;;;;;;;;5.00;5.00;;;;;21.14;49.08;98995.31;4955602;28;105501;-58
2022/06/17 08:29:30;;;;;;;;;4.33;4.00;;;;;21.13;48.64;99004.63;4945698;28;102100;-58
2022/06/17 08:35:00;;;;;;;;;3.00;3.00;;;;;21.13;49.10;98999.13;4951526;28;109045;-58
2022/06/17 08:37:27;;;;;;;;;2.67;2.67;;;;;21.14;48.74;99005.47;4957514;28;102201;-58
2022/06/17 08:39:54;;;;;;;;;3.00;3.00;;;;;21.14;49.27;99006.31;4983369;28;102107;-59
2022/06/17 08:42:33;;;;;;;;;3.00;3.00;;;;;21.14;49.27;99009.06;4962193;28;102149;-58
2022/06/17 08:45:29;;;;;;;;;2.00;2.00;;;;;21.15;48.94;99018.97;4956413;28;108786;-58
2022/06/17 08:48:09;;;;;;;;;4.00;4.00;;;;;21.15;48.61;99018.97;4946423;28;102165;-58
2022/06/17 08:50:56;;;;;;;;;2.67;2.67;;;;;21.16;48.84;99022.56;4960238;28;102636;-58
2022/06/17 08:53:41;;;;;;;;;3.33;3.33;;;;;21.17;48.80;99026.94;4958728;28;102753;-58
2022/06/17 08:56:24;;;;;;;;;5.00;3.00;;;;;21.17;49.00;99022.28;4954375;28;108491;-58
2022/06/17 08:59:00;;;;;;;;;3.00;2.67;;;;;21.17;49.02;99025.03;4939251;28;102550;-58
2022/06/17 09:01:39;;;;;;;;;2.67;2.67;;;;;21.17;48.73;99024.19;4988334;28;102433;-58
2022/06/17 09:04:33;;;;;;;;;2.00;2.00;;;;;21.16;49.13;99036.31;4992396;28;102525;-58
2022/06/17 09:07:28;;;;;;;;;3.33;3.33;;;;;21.18;48.79;99039.63;4955821;28;108845;-58
2022/06/17 09:10:03;;;;;;;;;4.00;4.00;;;;;21.18;48.67;99045.13;4951748;28;102529;-58
2022/06/17 09:12:48;;;;;;;;;3.33;3.33;;;;;21.18;48.97;99050.63;4960639;28;102417;-58
2022/06/17 09:15:26;;;;;;;;;3.00;3.00;;;;;21.18;48.65;99056.13;4954457;28;103948;-58
2022/06/17 09:18:21;;;;;;;;;4.00;3.67;;;;;21.18;48.68;99045.94;4955481;28;109112;-58
2022/06/17 09:20:49;;;;;;;;;3.33;3.33;;;;;21.19;48.53;99052.28;4960201;28;102420;-58
2022/06/17 09:23:19;;;;;;;;;2.67;2.67;;;;;21.20;48.83;99053.94;4952615;28;102354;-58
2022/06/17 09:25:47;;;;;;;;;3.00;2.67;;;;;21.22;48.80;99049.00;4959717;28;102604;-58
2022/06/17 09:28:23;;;;;;;;;2.00;2.00;;;;;21.21;49.04;99042.66;4948835;28;104063;-58
2022/06/17 09:30:56;;;;;;;;;3.33;3.33;;;;;21.23;48.61;99053.41;4968922;28;102096;-58
2022/06/17 09:33:28;;;;;;;;;4.00;4.00;;;;;21.22;48.89;99049.84;4960211;28;102177;-58
2022/06/17 09:36:17;;;;;;;;;3.00;3.00;;;;;21.23;48.78;99048.75;4942047;28;102346;-59
2022/06/17 09:39:04;;;;;;;;;3.67;3.67;;;;;21.23;48.44;99042.41;4955394;28;104161;-58
2022/06/17 09:41:39;;;;;;;;;4.00;4.00;;;;;21.17;48.85;99033.28;4940932;28;102172;-58
2022/06/17 09:44:10;;;;;;;;;3.00;3.00;;;;;21.23;48.50;99048.75;4953708;28;102505;-58
2022/06/17 09:47:24;;;;;;;;;3.00;3.00;;;;;21.24;48.83;99038.59;4991049;28;102351;-58
2022/06/17 09:50:13;;;;;;;;;4.00;3.33;;;;;21.24;48.55;99036.66;4904486;28;108661;-58
2022/06/17 09:52:49;;;;;;;;;3.67;2.67;;;;;21.25;48.78;99032.81;4953349;28;102003;-58
2022/06/17 09:55:32;;;;;;;;;3.33;2.67;;;;;21.25;48.91;99030.06;4981916;28;102528;-58
2022/06/17 09:58:16;;;;;;;;;3.67;2.67;;;;;21.26;48.53;99036.38;4958611;28;102206;-58
2022/06/17 10:00:47;;;;;;;;;2.33;2.33;;;;;21.26;48.94;99045.47;4991270;28;104053;-58
2022/06/17 10:03:24;;;;;;;;;3.00;3.00;;;;;21.27;48.89;99044.41;4991030;28;102123;-58
2022/06/17 10:05:57;;;;;;;;;3.67;3.67;;;;;21.28;48.91;99046.06;4964459;28;102091;-58
2022/06/17 10:08:32;;;;;;;;;3.33;3.00;;;;;21.28;48.94;99042.47;4991076;28;102271;-58
2022/06/17 10:11:11;;;;;;;;;3.67;3.67;;;;;21.29;49.12;99047.72;4954325;28;109053;-58
2022/06/17 10:14:02;;;;;;;;;4.00;4.00;;;;;21.30;49.00;99045.78;4957820;28;102254;-58
2022/06/17 10:19:24;;;;;;;;;3.67;3.00;;;;;21.30;48.84;99045.78;4961821;28;104645;-58
2022/06/17 10:22:18;;;;;;;;;4.00;3.00;;;;;21.30;49.03;99046.63;4958665;28;109682;-58
2022/06/17 10:25:11;;;;;;;;;2.33;2.33;;;;;21.31;48.40;99048.28;4964351;28;103310;-58
2022/06/17 10:27:39;;;;;;;;;4.00;4.00;;;;;21.31;48.86;99033.69;4959942;28;102437;-58
2022/06/17 10:30:25;;;;;;;;;3.00;3.00;;;;;21.34;48.67;99044.19;4961853;28;102526;-58
2022/06/17 10:32:52;;;;;;;;;3.00;3.00;;;;;21.33;48.71;99048.88;4963510;28;108928;-58
2022/06/17 10:35:29;;;;;;;;;2.33;2.00;;;;;21.34;48.54;99042.25;4959181;28;102100;-58
2022/06/17 10:37:57;;;;;;;;;2.67;2.67;;;;;21.35;48.76;99041.16;4955018;28;102414;-59
2022/06/17 10:40:26;;;;;;;;;4.00;3.67;;;;;21.35;48.77;99041.16;4952548;28;102224;-58
2022/06/17 10:42:54;;;;;;;;;3.33;3.00;;;;;21.36;48.78;99036.50;4956983;28;109159;-58
2022/06/17 10:45:21;;;;;;;;;3.00;2.67;;;;;21.36;48.40;99031.84;4955116;28;102087;-58
2022/06/17 10:48:05;;;;;;;;;3.33;2.00;;;;;21.38;48.66;99039.00;4958829;28;102000;-58
2022/06/17 10:50:32;;;;;;;;;2.00;2.00;;;;;21.38;48.67;99028.00;4944159;28;102622;-58
2022/06/17 10:53:05;;;;;;;;;2.67;2.67;;;;;21.38;48.88;99034.34;4952325;28;104090;-58
2022/06/17 10:55:46;;;;;;;;;3.67;2.67;;;;;21.37;48.51;99032.66;4949835;28;102267;-58
2022/06/17 10:58:27;;;;;;;;;3.67;3.67;;;;;21.37;48.63;99038.16;4956434;28;102110;-58
2022/06/17 11:00:57;;;;;;;;;2.67;2.67;;;;;21.36;48.82;99031.84;4943486;28;102272;-58
2022/06/17 11:03:34;;;;;;;;;2.00;2.00;;;;;21.38;48.96;99036.25;4953486;28;109019;-58
2022/06/17 11:06:22;;;;;;;;;3.00;3.00;;;;;21.38;48.74;99034.34;4957697;28;102308;-58
2022/06/17 11:08:49;;;;;;;;;3.00;3.00;;;;;21.40;48.47;99031.31;4929448;28;102467;-58
2022/06/17 11:14:04;;;;;;;;;3.00;3.00;;;;;21.42;48.58;99040.13;4963755;28;108630;-57
2022/06/17 11:16:36;;;;;;;;;4.00;4.00;;;;;21.42;48.55;99032.72;4967324;28;102361;-58
2022/06/17 11:19:05;;;;;;;;;2.00;2.00;;;;;21.43;48.81;99031.63;4955525;28;102267;-58
2022/06/17 11:21:36;;;;;;;;;3.33;3.33;;;;;21.42;48.19;99038.22;4959425;28;103054;-58
2022/06/17 11:24:03;;;;;;;;;4.33;4.00;;;;;21.42;48.72;99035.47;4958864;28;104891;-58
2022/06/17 11:26:33;;;;;;;;;3.00;2.00;;;;;21.43;48.70;99030.81;4957156;28;102109;-58
2022/06/17 11:29:03;;;;;;;;;3.00;3.00;;;;;21.44;48.27;99037.94;4942621;28;102305;-59
2022/06/17 11:31:32;;;;;;;;;3.00;3.00;;;;;21.43;48.17;99034.38;4957066;28;102196;-58
2022/06/17 11:34:14;;;;;;;;;2.33;2.33;;;;;21.44;48.35;99032.44;4954184;28;104025;-59
2022/06/17 11:36:57;;;;;;;;;2.67;2.33;;;;;21.45;48.37;99043.19;4958372;28;103751;-58
2022/06/17 11:39:34;;;;;;;;;4.67;4.00;;;;;21.45;48.22;99045.94;4943935;28;103221;-58
2022/06/17 11:42:24;;;;;;;;;2.00;2.00;;;;;21.46;48.37;99046.78;4954672;28;102423;-58
2022/06/17 11:44:55;;;;;;;;;3.00;3.00;;;;;21.47;48.24;99041.03;4954551;28;104056;-58
2022/06/17 11:47:24;;;;;;;;;3.00;3.00;;;;;21.47;48.22;99057.53;4954315;28;103631;-58
2022/06/17 11:49:53;;;;;;;;;3.33;3.33;;;;;21.48;48.48;99058.38;4948496;28;101987;-58
2022/06/17 11:52:28;;;;;;;;;2.00;2.00;;;;;21.48;48.49;99061.13;4979115;28;102167;-58
2022/06/17 11:54:55;;;;;;;;;3.00;2.00;;;;;21.48;48.05;99056.41;4953119;28;108872;-58
2022/06/17 11:57:33;;;;;;;;;2.33;2.00;;;;;21.49;48.20;99057.25;4957714;28;103116;-58
2022/06/17 12:00:04;;;;;;;;;4.00;4.00;;;;;21.42;48.28;99045.66;4964055;28;102506;-58